sensor_id;sensor_type;location;lat;lon;timestamp;P1;durP1;ratioP1;P2;durP2;ratioP2
17171;SDS011;8701;50.150;8.756;2023-06-14T00:02:43;5.10;;;4.17;;
17171;SDS011;8701;50.150;8.756;2023-06-14T00:06:46;7.50;;;4.47;;
17171;SDS011;8701;50.150;8.756;2023-06-14T00:10:49;5.10;;;4.30;;
17171;SDS011;8701;50.150;8.756;2023-06-14T00:14:51;5.23;;;4.30;;
17171;SDS011;8701;50.150;8.756;2023-06-14T00:18:55;5.40;;;4.60;;
17171;SDS011;8701;50.150;8.756;2023-06-14T00:22:57;8.70;;;4.97;;
17171;SDS011;8701;50.150;8.756;2023-06-14T00:26:59;7.30;;;4.40;;
17171;SDS011;8701;50.150;8.756;2023-06-14T00:31:03;5.43;;;4.50;;
17171;SDS011;8701;50.150;8.756;2023-06-14T00:35:06;5.37;;;4.60;;
17171;SDS011;8701;50.150;8.756;2023-06-14T00:39:11;5.27;;;4.10;;
17171;SDS011;8701;50.150;8.756;2023-06-14T00:43:13;8.13;;;4.70;;
17171;SDS011;8701;50.150;8.756;2023-06-14T00:47:17;4.47;;;4.07;;
17171;SDS011;8701;50.150;8.756;2023-06-14T00:51:22;7.50;;;4.23;;
17171;SDS011;8701;50.150;8.756;2023-06-14T00:55:24;5.13;;;4.63;;
17171;SDS011;8701;50.150;8.756;2023-06-14T00:59:26;7.90;;;4.40;;
17171;SDS011;8701;50.150;8.756;2023-06-14T01:03:28;5.33;;;3.87;;
17171;SDS011;8701;50.150;8.756;2023-06-14T01:07:36;5.53;;;4.30;;
17171;SDS011;8701;50.150;8.756;2023-06-14T01:11:47;4.80;;;4.07;;
17171;SDS011;8701;50.150;8.756;2023-06-14T01:16:00;6.30;;;4.77;;
17171;SDS011;8701;50.150;8.756;2023-06-14T01:20:05;16.03;;;4.23;;
17171;SDS011;8701;50.150;8.756;2023-06-14T01:24:11;4.80;;;4.00;;
17171;SDS011;8701;50.150;8.756;2023-06-14T01:28:14;6.97;;;4.80;;
17171;SDS011;8701;50.150;8.756;2023-06-14T01:32:17;5.97;;;4.60;;
17171;SDS011;8701;50.150;8.756;2023-06-14T01:36:20;9.80;;;4.13;;
17171;SDS011;8701;50.150;8.756;2023-06-14T01:40:25;7.90;;;4.27;;
17171;SDS011;8701;50.150;8.756;2023-06-14T01:44:28;6.47;;;4.10;;
17171;SDS011;8701;50.150;8.756;2023-06-14T01:48:35;4.60;;;4.20;;
17171;SDS011;8701;50.150;8.756;2023-06-14T01:52:38;7.93;;;4.50;;
17171;SDS011;8701;50.150;8.756;2023-06-14T01:56:41;4.90;;;3.90;;
17171;SDS011;8701;50.150;8.756;2023-06-14T02:00:44;5.93;;;4.50;;
17171;SDS011;8701;50.150;8.756;2023-06-14T02:04:48;8.70;;;4.00;;
17171;SDS011;8701;50.150;8.756;2023-06-14T02:08:50;5.50;;;4.47;;
17171;SDS011;8701;50.150;8.756;2023-06-14T02:12:53;9.47;;;4.40;;
17171;SDS011;8701;50.150;8.756;2023-06-14T02:16:56;7.90;;;4.10;;
17171;SDS011;8701;50.150;8.756;2023-06-14T02:20:59;6.70;;;4.10;;
17171;SDS011;8701;50.150;8.756;2023-06-14T02:25:01;6.33;;;4.53;;
17171;SDS011;8701;50.150;8.756;2023-06-14T02:29:05;4.90;;;4.10;;
17171;SDS011;8701;50.150;8.756;2023-06-14T02:33:11;4.87;;;3.97;;
17171;SDS011;8701;50.150;8.756;2023-06-14T02:37:14;6.73;;;3.80;;
17171;SDS011;8701;50.150;8.756;2023-06-14T02:41:17;5.30;;;4.23;;
17171;SDS011;8701;50.150;8.756;2023-06-14T02:45:20;5.37;;;3.90;;
17171;SDS011;8701;50.150;8.756;2023-06-14T02:49:23;10.80;;;4.40;;
17171;SDS011;8701;50.150;8.756;2023-06-14T02:53:25;4.47;;;3.90;;
17171;SDS011;8701;50.150;8.756;2023-06-14T02:57:28;5.90;;;3.83;;
17171;SDS011;8701;50.150;8.756;2023-06-14T03:01:32;9.20;;;4.30;;
17171;SDS011;8701;50.150;8.756;2023-06-14T03:05:38;5.30;;;4.33;;
17171;SDS011;8701;50.150;8.756;2023-06-14T03:09:48;5.30;;;3.70;;
17171;SDS011;8701;50.150;8.756;2023-06-14T03:13:50;4.83;;;4.33;;
17171;SDS011;8701;50.150;8.756;2023-06-14T03:17:54;5.87;;;3.50;;
17171;SDS011;8701;50.150;8.756;2023-06-14T03:21:57;7.20;;;4.10;;
17171;SDS011;8701;50.150;8.756;2023-06-14T03:26:01;5.10;;;4.57;;
17171;SDS011;8701;50.150;8.756;2023-06-14T03:30:03;7.53;;;3.93;;
17171;SDS011;8701;50.150;8.756;2023-06-14T03:34:09;3.77;;;3.40;;
17171;SDS011;8701;50.150;8.756;2023-06-14T03:38:11;5.60;;;3.93;;
17171;SDS011;8701;50.150;8.756;2023-06-14T03:42:13;4.30;;;3.70;;
17171;SDS011;8701;50.150;8.756;2023-06-14T03:46:18;8.40;;;3.60;;
17171;SDS011;8701;50.150;8.756;2023-06-14T03:50:21;5.43;;;3.87;;
17171;SDS011;8701;50.150;8.756;2023-06-14T03:54:25;4.60;;;4.20;;
17171;SDS011;8701;50.150;8.756;2023-06-14T03:58:29;5.00;;;4.20;;
17171;SDS011;8701;50.150;8.756;2023-06-14T04:02:31;8.70;;;4.00;;
17171;SDS011;8701;50.150;8.756;2023-06-14T04:06:35;5.20;;;4.30;;
17171;SDS011;8701;50.150;8.756;2023-06-14T04:10:39;6.57;;;4.10;;
17171;SDS011;8701;50.150;8.756;2023-06-14T04:14:42;7.07;;;4.20;;
17171;SDS011;8701;50.150;8.756;2023-06-14T04:18:45;8.83;;;4.20;;
17171;SDS011;8701;50.150;8.756;2023-06-14T04:22:51;5.03;;;3.67;;
17171;SDS011;8701;50.150;8.756;2023-06-14T04:26:54;5.57;;;4.00;;
17171;SDS011;8701;50.150;8.756;2023-06-14T04:30:59;6.10;;;3.53;;
17171;SDS011;8701;50.150;8.756;2023-06-14T04:35:05;5.10;;;3.90;;
17171;SDS011;8701;50.150;8.756;2023-06-14T04:39:11;5.60;;;4.27;;
17171;SDS011;8701;50.150;8.756;2023-06-14T04:43:14;5.07;;;3.90;;
17171;SDS011;8701;50.150;8.756;2023-06-14T04:47:19;5.00;;;3.77;;
17171;SDS011;8701;50.150;8.756;2023-06-14T04:51:21;4.53;;;3.70;;
17171;SDS011;8701;50.150;8.756;2023-06-14T04:55:31;6.40;;;3.47;;
17171;SDS011;8701;50.150;8.756;2023-06-14T04:59:35;6.40;;;3.70;;
17171;SDS011;8701;50.150;8.756;2023-06-14T05:03:37;3.97;;;3.60;;
17171;SDS011;8701;50.150;8.756;2023-06-14T05:07:40;7.27;;;3.83;;
17171;SDS011;8701;50.150;8.756;2023-06-14T05:11:44;11.23;;;4.17;;
17171;SDS011;8701;50.150;8.756;2023-06-14T05:15:46;9.47;;;4.27;;
17171;SDS011;8701;50.150;8.756;2023-06-14T05:19:49;6.53;;;3.97;;
17171;SDS011;8701;50.150;8.756;2023-06-14T05:23:51;4.73;;;3.83;;
17171;SDS011;8701;50.150;8.756;2023-06-14T05:27:55;6.77;;;4.17;;
17171;SDS011;8701;50.150;8.756;2023-06-14T05:31:58;12.10;;;3.80;;
17171;SDS011;8701;50.150;8.756;2023-06-14T05:36:00;4.50;;;3.70;;
17171;SDS011;8701;50.150;8.756;2023-06-14T05:40:03;7.53;;;3.40;;
17171;SDS011;8701;50.150;8.756;2023-06-14T05:44:08;4.67;;;3.70;;
17171;SDS011;8701;50.150;8.756;2023-06-14T05:48:10;4.50;;;3.50;;
17171;SDS011;8701;50.150;8.756;2023-06-14T05:52:12;4.07;;;3.50;;
17171;SDS011;8701;50.150;8.756;2023-06-14T05:56:15;4.00;;;3.60;;
17171;SDS011;8701;50.150;8.756;2023-06-14T06:00:20;6.27;;;4.20;;
17171;SDS011;8701;50.150;8.756;2023-06-14T06:04:22;4.63;;;3.77;;
17171;SDS011;8701;50.150;8.756;2023-06-14T06:08:25;4.70;;;4.10;;
17171;SDS011;8701;50.150;8.756;2023-06-14T06:12:27;5.63;;;3.80;;
17171;SDS011;8701;50.150;8.756;2023-06-14T06:16:31;6.50;;;3.27;;
17171;SDS011;8701;50.150;8.756;2023-06-14T06:20:33;6.70;;;3.87;;
17171;SDS011;8701;50.150;8.756;2023-06-14T06:24:37;6.40;;;3.70;;
17171;SDS011;8701;50.150;8.756;2023-06-14T06:28:39;6.57;;;3.50;;
17171;SDS011;8701;50.150;8.756;2023-06-14T06:32:42;6.33;;;3.47;;
17171;SDS011;8701;50.150;8.756;2023-06-14T06:36:45;3.87;;;3.50;;
17171;SDS011;8701;50.150;8.756;2023-06-14T06:40:47;3.57;;;3.27;;
17171;SDS011;8701;50.150;8.756;2023-06-14T06:44:50;5.10;;;3.67;;
17171;SDS011;8701;50.150;8.756;2023-06-14T06:48:53;5.20;;;3.50;;
17171;SDS011;8701;50.150;8.756;2023-06-14T06:52:56;4.57;;;3.37;;
17171;SDS011;8701;50.150;8.756;2023-06-14T06:56:58;3.50;;;3.20;;
17171;SDS011;8701;50.150;8.756;2023-06-14T07:01:01;8.87;;;2.70;;
17171;SDS011;8701;50.150;8.756;2023-06-14T07:05:05;2.80;;;2.57;;
17171;SDS011;8701;50.150;8.756;2023-06-14T07:09:07;5.03;;;2.80;;
17171;SDS011;8701;50.150;8.756;2023-06-14T07:13:13;2.50;;;2.30;;
17171;SDS011;8701;50.150;8.756;2023-06-14T07:17:15;2.70;;;2.40;;
17171;SDS011;8701;50.150;8.756;2023-06-14T07:21:19;3.53;;;2.50;;
17171;SDS011;8701;50.150;8.756;2023-06-14T07:25:21;2.67;;;2.30;;
17171;SDS011;8701;50.150;8.756;2023-06-14T07:29:23;2.80;;;1.77;;
17171;SDS011;8701;50.150;8.756;2023-06-14T07:33:32;3.17;;;2.50;;
17171;SDS011;8701;50.150;8.756;2023-06-14T07:37:36;5.70;;;2.47;;
17171;SDS011;8701;50.150;8.756;2023-06-14T07:41:38;2.53;;;2.10;;
17171;SDS011;8701;50.150;8.756;2023-06-14T07:45:40;2.47;;;2.27;;
17171;SDS011;8701;50.150;8.756;2023-06-14T07:49:42;7.40;;;2.30;;
17171;SDS011;8701;50.150;8.756;2023-06-14T07:53:46;3.43;;;2.20;;
17171;SDS011;8701;50.150;8.756;2023-06-14T07:57:48;6.53;;;2.03;;
17171;SDS011;8701;50.150;8.756;2023-06-14T08:01:50;4.33;;;2.00;;
17171;SDS011;8701;50.150;8.756;2023-06-14T08:05:52;2.57;;;2.37;;
17171;SDS011;8701;50.150;8.756;2023-06-14T08:09:56;2.80;;;1.97;;
17171;SDS011;8701;50.150;8.756;2023-06-14T08:13:58;2.00;;;1.90;;
17171;SDS011;8701;50.150;8.756;2023-06-14T08:18:00;1.80;;;1.70;;
17171;SDS011;8701;50.150;8.756;2023-06-14T08:22:03;1.50;;;1.40;;
17171;SDS011;8701;50.150;8.756;2023-06-14T08:26:06;1.70;;;1.60;;
17171;SDS011;8701;50.150;8.756;2023-06-14T08:30:09;1.87;;;1.77;;
17171;SDS011;8701;50.150;8.756;2023-06-14T08:34:13;2.50;;;2.30;;
17171;SDS011;8701;50.150;8.756;2023-06-14T08:38:15;3.43;;;1.97;;
17171;SDS011;8701;50.150;8.756;2023-06-14T08:42:18;4.13;;;1.50;;
17171;SDS011;8701;50.150;8.756;2023-06-14T08:46:23;2.03;;;1.80;;
17171;SDS011;8701;50.150;8.756;2023-06-14T08:50:28;2.40;;;2.27;;
17171;SDS011;8701;50.150;8.756;2023-06-14T08:54:32;1.53;;;1.40;;
17171;SDS011;8701;50.150;8.756;2023-06-14T08:58:45;1.43;;;1.33;;
17171;SDS011;8701;50.150;8.756;2023-06-14T09:02:49;2.20;;;1.40;;
17171;SDS011;8701;50.150;8.756;2023-06-14T09:06:56;1.53;;;1.40;;
17171;SDS011;8701;50.150;8.756;2023-06-14T09:10:58;2.33;;;1.67;;
17171;SDS011;8701;50.150;8.756;2023-06-14T09:15:05;2.00;;;1.90;;
17171;SDS011;8701;50.150;8.756;2023-06-14T09:19:09;1.90;;;1.80;;
17171;SDS011;8701;50.150;8.756;2023-06-14T09:23:19;1.73;;;1.63;;
17171;SDS011;8701;50.150;8.756;2023-06-14T09:27:23;2.03;;;1.40;;
17171;SDS011;8701;50.150;8.756;2023-06-14T09:31:28;1.20;;;1.20;;
17171;SDS011;8701;50.150;8.756;2023-06-14T09:35:32;1.60;;;1.50;;
17171;SDS011;8701;50.150;8.756;2023-06-14T09:39:34;10.00;;;2.10;;
17171;SDS011;8701;50.150;8.756;2023-06-14T09:43:36;2.43;;;1.33;;
17171;SDS011;8701;50.150;8.756;2023-06-14T09:47:40;2.50;;;1.63;;
17171;SDS011;8701;50.150;8.756;2023-06-14T09:51:44;1.50;;;1.40;;
17171;SDS011;8701;50.150;8.756;2023-06-14T09:55:47;1.30;;;1.30;;
17171;SDS011;8701;50.150;8.756;2023-06-14T09:59:53;1.93;;;1.70;;
17171;SDS011;8701;50.150;8.756;2023-06-14T10:04:02;1.80;;;1.70;;
17171;SDS011;8701;50.150;8.756;2023-06-14T10:08:07;1.70;;;1.60;;
17171;SDS011;8701;50.150;8.756;2023-06-14T10:12:11;1.60;;;1.50;;
17171;SDS011;8701;50.150;8.756;2023-06-14T10:16:20;1.80;;;1.70;;
17171;SDS011;8701;50.150;8.756;2023-06-14T10:20:28;1.67;;;1.57;;
17171;SDS011;8701;50.150;8.756;2023-06-14T10:24:35;1.50;;;1.40;;
17171;SDS011;8701;50.150;8.756;2023-06-14T10:28:42;1.57;;;1.40;;
17171;SDS011;8701;50.150;8.756;2023-06-14T10:33:04;1.77;;;1.67;;
17171;SDS011;8701;50.150;8.756;2023-06-14T10:37:11;1.60;;;1.50;;
17171;SDS011;8701;50.150;8.756;2023-06-14T10:41:14;1.60;;;1.50;;
17171;SDS011;8701;50.150;8.756;2023-06-14T10:45:18;1.40;;;1.30;;
17171;SDS011;8701;50.150;8.756;2023-06-14T10:49:36;1.30;;;1.20;;
17171;SDS011;8701;50.150;8.756;2023-06-14T10:53:42;2.30;;;1.50;;
17171;SDS011;8701;50.150;8.756;2023-06-14T10:57:45;6.30;;;1.70;;
17171;SDS011;8701;50.150;8.756;2023-06-14T11:01:53;2.53;;;1.43;;
17171;SDS011;8701;50.150;8.756;2023-06-14T11:06:15;1.60;;;1.50;;
17171;SDS011;8701;50.150;8.756;2023-06-14T11:10:22;1.60;;;1.50;;
17171;SDS011;8701;50.150;8.756;2023-06-14T11:14:33;3.20;;;2.03;;
17171;SDS011;8701;50.150;8.756;2023-06-14T11:18:35;2.53;;;1.80;;
17171;SDS011;8701;50.150;8.756;2023-06-14T11:22:38;1.57;;;1.40;;
17171;SDS011;8701;50.150;8.756;2023-06-14T11:26:42;2.70;;;1.50;;
17171;SDS011;8701;50.150;8.756;2023-06-14T11:30:45;2.10;;;1.80;;
17171;SDS011;8701;50.150;8.756;2023-06-14T11:34:48;1.70;;;1.60;;
17171;SDS011;8701;50.150;8.756;2023-06-14T11:38:57;2.30;;;1.80;;
17171;SDS011;8701;50.150;8.756;2023-06-14T11:43:01;2.10;;;1.73;;
17171;SDS011;8701;50.150;8.756;2023-06-14T11:47:05;2.80;;;2.20;;
17171;SDS011;8701;50.150;8.756;2023-06-14T11:51:07;1.80;;;1.70;;
17171;SDS011;8701;50.150;8.756;2023-06-14T11:55:10;2.03;;;1.83;;
17171;SDS011;8701;50.150;8.756;2023-06-14T11:59:14;1.87;;;1.77;;
17171;SDS011;8701;50.150;8.756;2023-06-14T12:03:16;2.07;;;1.97;;
17171;SDS011;8701;50.150;8.756;2023-06-14T12:07:18;2.20;;;2.00;;
17171;SDS011;8701;50.150;8.756;2023-06-14T12:11:23;2.47;;;2.20;;
17171;SDS011;8701;50.150;8.756;2023-06-14T12:15:31;2.00;;;1.80;;
17171;SDS011;8701;50.150;8.756;2023-06-14T12:19:40;1.53;;;1.43;;
17171;SDS011;8701;50.150;8.756;2023-06-14T12:23:44;4.20;;;2.10;;
17171;SDS011;8701;50.150;8.756;2023-06-14T12:27:47;8.23;;;2.27;;
17171;SDS011;8701;50.150;8.756;2023-06-14T12:31:51;2.73;;;2.10;;
17171;SDS011;8701;50.150;8.756;2023-06-14T12:35:55;2.50;;;1.90;;
17171;SDS011;8701;50.150;8.756;2023-06-14T12:39:58;2.50;;;2.30;;
17171;SDS011;8701;50.150;8.756;2023-06-14T12:44:00;2.00;;;1.90;;
17171;SDS011;8701;50.150;8.756;2023-06-14T12:48:06;2.70;;;1.90;;
17171;SDS011;8701;50.150;8.756;2023-06-14T12:52:09;3.23;;;1.83;;
17171;SDS011;8701;50.150;8.756;2023-06-14T12:56:11;2.70;;;2.50;;
17171;SDS011;8701;50.150;8.756;2023-06-14T13:00:15;4.43;;;2.13;;
17171;SDS011;8701;50.150;8.756;2023-06-14T13:04:19;5.20;;;2.00;;
17171;SDS011;8701;50.150;8.756;2023-06-14T13:08:22;2.27;;;2.07;;
17171;SDS011;8701;50.150;8.756;2023-06-14T13:12:24;2.97;;;2.00;;
17171;SDS011;8701;50.150;8.756;2023-06-14T13:16:26;3.67;;;2.17;;
17171;SDS011;8701;50.150;8.756;2023-06-14T13:20:30;2.00;;;1.90;;
17171;SDS011;8701;50.150;8.756;2023-06-14T13:24:32;1.97;;;1.83;;
17171;SDS011;8701;50.150;8.756;2023-06-14T13:28:34;1.80;;;1.70;;
17171;SDS011;8701;50.150;8.756;2023-06-14T13:32:36;2.13;;;1.93;;
17171;SDS011;8701;50.150;8.756;2023-06-14T13:36:40;5.00;;;2.00;;
17171;SDS011;8701;50.150;8.756;2023-06-14T13:40:42;2.27;;;1.80;;
17171;SDS011;8701;50.150;8.756;2023-06-14T13:44:44;4.63;;;2.07;;
17171;SDS011;8701;50.150;8.756;2023-06-14T13:48:46;6.10;;;2.00;;
17171;SDS011;8701;50.150;8.756;2023-06-14T13:52:50;3.13;;;2.10;;
17171;SDS011;8701;50.150;8.756;2023-06-14T13:56:53;1.93;;;1.83;;
17171;SDS011;8701;50.150;8.756;2023-06-14T14:00:55;2.70;;;2.03;;
17171;SDS011;8701;50.150;8.756;2023-06-14T14:04:57;2.00;;;1.90;;
17171;SDS011;8701;50.150;8.756;2023-06-14T14:09:01;2.83;;;1.90;;
17171;SDS011;8701;50.150;8.756;2023-06-14T14:13:03;4.97;;;2.07;;
17171;SDS011;8701;50.150;8.756;2023-06-14T14:17:05;1.87;;;1.77;;
17171;SDS011;8701;50.150;8.756;2023-06-14T14:21:07;4.27;;;1.90;;
17171;SDS011;8701;50.150;8.756;2023-06-14T14:25:11;2.13;;;1.93;;
17171;SDS011;8701;50.150;8.756;2023-06-14T14:29:13;3.30;;;2.30;;
17171;SDS011;8701;50.150;8.756;2023-06-14T14:33:16;2.27;;;2.10;;
17171;SDS011;8701;50.150;8.756;2023-06-14T14:37:18;2.20;;;2.00;;
17171;SDS011;8701;50.150;8.756;2023-06-14T14:41:22;2.00;;;1.80;;
17171;SDS011;8701;50.150;8.756;2023-06-14T14:45:24;2.33;;;2.03;;
17171;SDS011;8701;50.150;8.756;2023-06-14T14:49:26;2.77;;;1.90;;
17171;SDS011;8701;50.150;8.756;2023-06-14T14:53:28;1.80;;;1.70;;
17171;SDS011;8701;50.150;8.756;2023-06-14T14:57:32;3.93;;;2.00;;
17171;SDS011;8701;50.150;8.756;2023-06-14T15:01:34;2.00;;;1.90;;
17171;SDS011;8701;50.150;8.756;2023-06-14T15:05:36;2.43;;;2.23;;
17171;SDS011;8701;50.150;8.756;2023-06-14T15:09:39;2.80;;;2.10;;
17171;SDS011;8701;50.150;8.756;2023-06-14T15:13:43;2.60;;;2.10;;
17171;SDS011;8701;50.150;8.756;2023-06-14T15:17:45;2.30;;;2.03;;
17171;SDS011;8701;50.150;8.756;2023-06-14T15:21:47;2.10;;;1.90;;
17171;SDS011;8701;50.150;8.756;2023-06-14T15:25:49;4.40;;;2.43;;
17171;SDS011;8701;50.150;8.756;2023-06-14T15:29:53;2.00;;;1.90;;
17171;SDS011;8701;50.150;8.756;2023-06-14T15:33:55;3.77;;;1.93;;
17171;SDS011;8701;50.150;8.756;2023-06-14T15:37:58;4.00;;;2.20;;
17171;SDS011;8701;50.150;8.756;2023-06-14T15:42:00;2.20;;;2.00;;
17171;SDS011;8701;50.150;8.756;2023-06-14T15:46:03;3.80;;;1.90;;
17171;SDS011;8701;50.150;8.756;2023-06-14T15:50:06;2.13;;;2.03;;
17171;SDS011;8701;50.150;8.756;2023-06-14T15:54:09;2.93;;;2.17;;
17171;SDS011;8701;50.150;8.756;2023-06-14T15:58:11;2.10;;;1.90;;
17171;SDS011;8701;50.150;8.756;2023-06-14T16:02:14;10.83;;;2.23;;
17171;SDS011;8701;50.150;8.756;2023-06-14T16:06:17;2.13;;;2.00;;
17171;SDS011;8701;50.150;8.756;2023-06-14T16:10:19;2.17;;;1.97;;
17171;SDS011;8701;50.150;8.756;2023-06-14T16:14:21;2.60;;;2.13;;
17171;SDS011;8701;50.150;8.756;2023-06-14T16:18:25;4.97;;;2.40;;
17171;SDS011;8701;50.150;8.756;2023-06-14T16:22:27;2.30;;;2.10;;
17171;SDS011;8701;50.150;8.756;2023-06-14T16:26:29;3.73;;;2.57;;
17171;SDS011;8701;50.150;8.756;2023-06-14T16:30:31;2.40;;;2.10;;
17171;SDS011;8701;50.150;8.756;2023-06-14T16:34:35;2.50;;;2.30;;
17171;SDS011;8701;50.150;8.756;2023-06-14T16:38:38;3.80;;;2.27;;
17171;SDS011;8701;50.150;8.756;2023-06-14T16:42:40;2.73;;;2.53;;
17171;SDS011;8701;50.150;8.756;2023-06-14T16:46:43;3.50;;;2.10;;
17171;SDS011;8701;50.150;8.756;2023-06-14T16:50:47;4.20;;;2.17;;
17171;SDS011;8701;50.150;8.756;2023-06-14T16:54:49;2.80;;;2.50;;
17171;SDS011;8701;50.150;8.756;2023-06-14T16:58:51;5.63;;;2.50;;
17171;SDS011;8701;50.150;8.756;2023-06-14T17:02:54;2.60;;;2.40;;
17171;SDS011;8701;50.150;8.756;2023-06-14T17:06:58;4.03;;;2.70;;
17171;SDS011;8701;50.150;8.756;2023-06-14T17:11:00;2.57;;;2.37;;
17171;SDS011;8701;50.150;8.756;2023-06-14T17:15:03;10.13;;;2.40;;
17171;SDS011;8701;50.150;8.756;2023-06-14T17:19:06;3.73;;;2.57;;
17171;SDS011;8701;50.150;8.756;2023-06-14T17:23:10;2.47;;;2.27;;
17171;SDS011;8701;50.150;8.756;2023-06-14T17:27:12;2.40;;;2.20;;
17171;SDS011;8701;50.150;8.756;2023-06-14T17:31:16;3.23;;;2.17;;
17171;SDS011;8701;50.150;8.756;2023-06-14T17:35:18;6.60;;;2.90;;
17171;SDS011;8701;50.150;8.756;2023-06-14T17:39:21;2.57;;;2.37;;
17171;SDS011;8701;50.150;8.756;2023-06-14T17:43:24;3.00;;;2.60;;
17171;SDS011;8701;50.150;8.756;2023-06-14T17:47:26;2.63;;;2.43;;
17171;SDS011;8701;50.150;8.756;2023-06-14T17:51:28;2.63;;;2.43;;
17171;SDS011;8701;50.150;8.756;2023-06-14T17:55:32;2.90;;;2.17;;
17171;SDS011;8701;50.150;8.756;2023-06-14T17:59:39;4.40;;;2.33;;
17171;SDS011;8701;50.150;8.756;2023-06-14T18:03:41;2.80;;;2.60;;
17171;SDS011;8701;50.150;8.756;2023-06-14T18:07:44;2.40;;;2.20;;
17171;SDS011;8701;50.150;8.756;2023-06-14T18:11:48;3.30;;;2.50;;
17171;SDS011;8701;50.150;8.756;2023-06-14T18:15:50;5.30;;;2.60;;
17171;SDS011;8701;50.150;8.756;2023-06-14T18:19:53;3.60;;;2.90;;
17171;SDS011;8701;50.150;8.756;2023-06-14T18:23:55;2.60;;;2.40;;
17171;SDS011;8701;50.150;8.756;2023-06-14T18:27:58;2.70;;;2.50;;
17171;SDS011;8701;50.150;8.756;2023-06-14T18:32:01;2.63;;;2.43;;
17171;SDS011;8701;50.150;8.756;2023-06-14T18:36:03;4.40;;;2.30;;
17171;SDS011;8701;50.150;8.756;2023-06-14T18:40:05;4.70;;;2.40;;
17171;SDS011;8701;50.150;8.756;2023-06-14T18:44:10;3.53;;;2.40;;
17171;SDS011;8701;50.150;8.756;2023-06-14T18:48:12;2.70;;;2.43;;
17171;SDS011;8701;50.150;8.756;2023-06-14T18:52:15;2.80;;;2.60;;
17171;SDS011;8701;50.150;8.756;2023-06-14T18:56:17;4.00;;;2.87;;
17171;SDS011;8701;50.150;8.756;2023-06-14T19:00:21;3.57;;;2.47;;
17171;SDS011;8701;50.150;8.756;2023-06-14T19:04:23;4.43;;;3.13;;
17171;SDS011;8701;50.150;8.756;2023-06-14T19:08:25;5.07;;;2.40;;
17171;SDS011;8701;50.150;8.756;2023-06-14T19:12:28;4.90;;;3.00;;
17171;SDS011;8701;50.150;8.756;2023-06-14T19:16:31;4.40;;;2.70;;
17171;SDS011;8701;50.150;8.756;2023-06-14T19:20:33;2.83;;;2.13;;
17171;SDS011;8701;50.150;8.756;2023-06-14T19:24:36;5.00;;;2.97;;
17171;SDS011;8701;50.150;8.756;2023-06-14T19:28:38;4.17;;;2.83;;
17171;SDS011;8701;50.150;8.756;2023-06-14T19:32:42;2.47;;;2.27;;
17171;SDS011;8701;50.150;8.756;2023-06-14T19:36:45;3.27;;;2.70;;
17171;SDS011;8701;50.150;8.756;2023-06-14T19:40:47;7.00;;;2.80;;
17171;SDS011;8701;50.150;8.756;2023-06-14T19:44:49;4.93;;;2.73;;
17171;SDS011;8701;50.150;8.756;2023-06-14T19:48:53;4.00;;;2.50;;
17171;SDS011;8701;50.150;8.756;2023-06-14T19:52:56;3.30;;;3.00;;
17171;SDS011;8701;50.150;8.756;2023-06-14T19:56:58;2.87;;;2.47;;
17171;SDS011;8701;50.150;8.756;2023-06-14T20:01:00;4.27;;;3.20;;
17171;SDS011;8701;50.150;8.756;2023-06-14T20:05:05;4.07;;;2.77;;
17171;SDS011;8701;50.150;8.756;2023-06-14T20:09:08;3.63;;;2.70;;
17171;SDS011;8701;50.150;8.756;2023-06-14T20:13:14;2.60;;;2.40;;
17171;SDS011;8701;50.150;8.756;2023-06-14T20:17:16;3.00;;;2.60;;
17171;SDS011;8701;50.150;8.756;2023-06-14T20:21:20;5.60;;;2.67;;
17171;SDS011;8701;50.150;8.756;2023-06-14T20:25:22;5.10;;;2.70;;
17171;SDS011;8701;50.150;8.756;2023-06-14T20:29:24;4.30;;;2.77;;
17171;SDS011;8701;50.150;8.756;2023-06-14T20:33:26;7.13;;;3.20;;
17171;SDS011;8701;50.150;8.756;2023-06-14T20:37:31;4.43;;;3.10;;
17171;SDS011;8701;50.150;8.756;2023-06-14T20:41:33;4.60;;;3.20;;
17171;SDS011;8701;50.150;8.756;2023-06-14T20:45:35;5.80;;;3.40;;
17171;SDS011;8701;50.150;8.756;2023-06-14T20:49:38;3.17;;;2.97;;
17171;SDS011;8701;50.150;8.756;2023-06-14T20:53:44;2.80;;;2.60;;
17171;SDS011;8701;50.150;8.756;2023-06-14T20:57:47;2.70;;;2.43;;
17171;SDS011;8701;50.150;8.756;2023-06-14T21:01:49;4.73;;;2.70;;
17171;SDS011;8701;50.150;8.756;2023-06-14T21:05:51;8.03;;;2.60;;
17171;SDS011;8701;50.150;8.756;2023-06-14T21:09:55;5.07;;;2.73;;
17171;SDS011;8701;50.150;8.756;2023-06-14T21:13:57;3.00;;;2.70;;
17171;SDS011;8701;50.150;8.756;2023-06-14T21:18:00;5.17;;;2.93;;
17171;SDS011;8701;50.150;8.756;2023-06-14T21:22:02;2.60;;;2.40;;
17171;SDS011;8701;50.150;8.756;2023-06-14T21:26:06;3.70;;;2.80;;
17171;SDS011;8701;50.150;8.756;2023-06-14T21:30:09;5.60;;;2.60;;
17171;SDS011;8701;50.150;8.756;2023-06-14T21:34:12;3.87;;;2.90;;
17171;SDS011;8701;50.150;8.756;2023-06-14T21:38:14;5.37;;;2.70;;
17171;SDS011;8701;50.150;8.756;2023-06-14T21:42:17;2.93;;;2.70;;
17171;SDS011;8701;50.150;8.756;2023-06-14T21:46:20;3.97;;;2.70;;
17171;SDS011;8701;50.150;8.756;2023-06-14T21:50:22;2.90;;;2.70;;
17171;SDS011;8701;50.150;8.756;2023-06-14T21:54:25;3.20;;;2.40;;
17171;SDS011;8701;50.150;8.756;2023-06-14T21:58:29;2.90;;;2.40;;
17171;SDS011;8701;50.150;8.756;2023-06-14T22:02:31;4.00;;;2.70;;
17171;SDS011;8701;50.150;8.756;2023-06-14T22:06:33;2.53;;;2.30;;
17171;SDS011;8701;50.150;8.756;2023-06-14T22:10:36;2.90;;;2.60;;
17171;SDS011;8701;50.150;8.756;2023-06-14T22:14:39;2.87;;;2.53;;
17171;SDS011;8701;50.150;8.756;2023-06-14T22:18:43;2.57;;;2.37;;
17171;SDS011;8701;50.150;8.756;2023-06-14T22:22:46;2.80;;;2.47;;
17171;SDS011;8701;50.150;8.756;2023-06-14T22:26:50;2.90;;;2.60;;
17171;SDS011;8701;50.150;8.756;2023-06-14T22:30:58;3.03;;;2.60;;
17171;SDS011;8701;50.150;8.756;2023-06-14T22:35:00;3.53;;;2.20;;
17171;SDS011;8701;50.150;8.756;2023-06-14T22:39:04;2.60;;;2.40;;
17171;SDS011;8701;50.150;8.756;2023-06-14T22:43:07;2.63;;;2.40;;
17171;SDS011;8701;50.150;8.756;2023-06-14T22:47:11;2.50;;;2.30;;
17171;SDS011;8701;50.150;8.756;2023-06-14T22:51:20;3.60;;;2.20;;
17171;SDS011;8701;50.150;8.756;2023-06-14T22:55:23;2.60;;;2.33;;
17171;SDS011;8701;50.150;8.756;2023-06-14T22:59:26;2.97;;;2.77;;
17171;SDS011;8701;50.150;8.756;2023-06-14T23:03:31;4.03;;;2.27;;
17171;SDS011;8701;50.150;8.756;2023-06-14T23:07:33;3.27;;;2.90;;
17171;SDS011;8701;50.150;8.756;2023-06-14T23:11:37;4.33;;;2.87;;
17171;SDS011;8701;50.150;8.756;2023-06-14T23:15:44;3.20;;;2.57;;
17171;SDS011;8701;50.150;8.756;2023-06-14T23:19:48;3.93;;;2.57;;
17171;SDS011;8701;50.150;8.756;2023-06-14T23:23:50;2.50;;;2.30;;
17171;SDS011;8701;50.150;8.756;2023-06-14T23:27:53;2.90;;;2.60;;
17171;SDS011;8701;50.150;8.756;2023-06-14T23:31:56;2.27;;;2.17;;
17171;SDS011;8701;50.150;8.756;2023-06-14T23:36:01;2.90;;;2.63;;
17171;SDS011;8701;50.150;8.756;2023-06-14T23:40:05;2.83;;;2.57;;
17171;SDS011;8701;50.150;8.756;2023-06-14T23:44:11;3.20;;;2.70;;
17171;SDS011;8701;50.150;8.756;2023-06-14T23:48:14;3.70;;;2.80;;
17171;SDS011;8701;50.150;8.756;2023-06-14T23:52:17;3.87;;;2.50;;
17171;SDS011;8701;50.150;8.756;2023-06-14T23:56:21;2.80;;;2.60;;
